Taiwan Taoyuan International Airport
RCTP : now visible

Airfield :











YOU CAN JOIN US ON...

 
LOGIN :

Register | Disclaimer

   EN    FR    IT 

 









Legend :    VFR   Marginal VFR   IFR   Intensive IFR   Very Intensive IFR
Visi :
Ceiling :
>= 8 km
>= 3000ft
5 to 8 km
1000 to 3000 ft
1500m to 5 km
500 to 1000 ft
800 to 1500m
200 to 500 ft
< 800m
< 200 ft
Symbols :   Thunderstorms  Fog  Heavy snow  Heavy precipitations  Wind > 20 kt






- Airport Elevation : 106 ft
- IATA code : TPE


RCTP - Taiwan Taoyuan International

CURRENT METAR :
  • 110210Z 03013KT 9999 FEW008 SCT012 BKN020 20/18 Q1018 NOSIG RMK A3008

EXPIRED METARs :
  • 110200Z 04014KT 9999 FEW008 BKN012 BKN020 20/17 Q1019 NOSIG RMK A3009
  • 110130Z 05014KT 9999 FEW008 BKN012 BKN020 20/17 Q1019 NOSIG RMK A3010
  • 110100Z 05015KT 9999 FEW008 BKN012 20/17 Q1019 NOSIG RMK A3010
  • 110030Z 04013KT 9999 FEW008 BKN012 20/17 Q1019 NOSIG RMK A3010
  • 110020Z 04014KT 9999 FEW008 BKN012 20/17 Q1019 NOSIG RMK A3009
  • 110000Z 04014KT 9999 FEW012 SCT020 19/17 Q1019 NOSIG RMK A3009
  • 102330Z 03013KT 9999 SCT010 BKN018 BKN040 19/17 Q1018 NOSIG RMK A3008

TAF TAF RCTP
Valid from the 11 at 00:00 until the 12 at 06:00 UTC


102300Z 1100/1206 01010KT 9999 SCT010 BKN016 BKN040
BECMG 1100/1102 03015KT FEW012 BKN032
TEMPO 1106/1110 04020KT
BECMG 1110/1112 07020KT
TEMPO 1114/1120 06025G35KT



MET'MAP, your aeronautical weather chart ! - Copyright ORBIFLY December 2007 - Disclaimer

ORBIFLY MET'MAP TEAM :

Programming & Development : Alexandra Zaïnal
Concept & original design : Baudouin d'Aumeries
Assistance for programming : Marc-Olivier Méhu
Technical & hardware support : Manuel Goepfert

Contact : metmap@orbifly.com




SOURCES & CREDITS :

   NOAA       Earth
Advisory